Time;durP1;ratioP1;P1;durP2;ratioP2;P2;SDS_P1;SDS_P2;PMS_P1;PMS_P2;Temp;Humidity;BMP_temperature;BMP_pressure;BME280_temperature;BME280_humidity;BME280_pressure;Samples;Min_cycle;Max_cycle;Signal;HPM_P1;HPM_P2
2022/04/02 00:00:06;;;;;;;11.35;2.70;;;31.60;26.60;;;;;;5047868;28;20067;-68
2022/04/02 00:02:32;;;;;;;15.05;3.22;;;31.50;26.80;;;;;;5047468;28;20077;-67
2022/04/02 00:04:59;;;;;;;14.90;2.83;;;31.50;26.80;;;;;;5047360;28;20095;-68
2022/04/02 00:07:25;;;;;;;19.77;3.53;;;31.40;26.90;;;;;;5047444;28;20076;-67
2022/04/02 00:09:51;;;;;;;13.90;2.45;;;31.40;27.30;;;;;;5029412;28;20078;-66
2022/04/02 00:12:18;;;;;;;16.42;2.55;;;31.30;27.60;;;;;;5046200;28;20130;-68
2022/04/02 00:14:45;;;;;;;12.77;2.97;;;31.10;27.50;;;;;;5063601;28;20102;-67
2022/04/02 00:17:12;;;;;;;18.77;3.10;;;31.00;27.40;;;;;;5048103;28;20122;-71
2022/04/02 00:19:38;;;;;;;30.55;4.10;;;30.90;27.60;;;;;;5046906;28;20113;-73
2022/04/02 00:22:05;;;;;;;22.42;3.13;;;30.80;27.90;;;;;;5045137;28;20069;-68
2022/04/02 00:24:31;;;;;;;25.77;3.80;;;30.80;27.50;;;;;;5046648;28;20082;-64
2022/04/02 00:26:58;;;;;;;20.55;3.60;;;30.80;27.80;;;;;;5047660;28;20066;-69
2022/04/02 00:29:24;;;;;;;19.08;2.92;;;30.80;28.30;;;;;;5046843;28;20099;-67
2022/04/02 00:31:50;;;;;;;607.35;51.38;;;30.60;27.60;;;;;;5063783;28;20079;-69
2022/04/02 00:34:17;;;;;;;17.13;3.70;;;30.50;27.90;;;;;;5046591;28;20174;-68
2022/04/02 00:36:44;;;;;;;22.88;3.42;;;30.50;28.00;;;;;;5046596;28;20550;-68
2022/04/02 00:39:12;;;;;;;14.55;3.05;;;30.40;27.90;;;;;;5046807;28;20071;-65
2022/04/02 00:41:38;;;;;;;17.25;3.00;;;30.30;28.10;;;;;;5046450;28;20078;-68
2022/04/02 00:44:12;;;;;;;19.10;2.63;;;30.20;28.30;;;;;;5047441;28;20521;-69
2022/04/02 00:46:41;;;;;;;15.00;2.97;;;30.10;28.20;;;;;;5030985;28;20075;-65
2022/04/02 00:49:09;;;;;;;14.00;3.10;;;30.10;28.70;;;;;;5030303;28;20078;-67
2022/04/02 00:51:41;;;;;;;14.23;3.50;;;30.00;28.50;;;;;;5048494;28;20499;-68
2022/04/02 00:54:20;;;;;;;18.02;2.70;;;29.90;28.90;;;;;;5034811;28;20458;-68
2022/04/02 00:56:47;;;;;;;14.95;2.45;;;29.80;28.70;;;;;;5035251;28;20086;-67
2022/04/02 00:59:14;;;;;;;16.40;3.55;;;29.70;29.30;;;;;;5034648;28;20074;-67
2022/04/02 01:01:43;;;;;;;30.13;3.30;;;29.60;29.30;;;;;;5050144;28;20098;-67
2022/04/02 01:04:09;;;;;;;20.73;2.88;;;29.60;29.20;;;;;;5050276;28;20075;-64
2022/04/02 01:06:36;;;;;;;16.92;3.05;;;29.60;29.50;;;;;;5050304;28;20080;-68
2022/04/02 01:09:03;;;;;;;11.77;2.72;;;29.50;29.40;;;;;;5050204;28;20068;-64
2022/04/02 01:11:41;;;;;;;16.23;3.10;;;29.50;29.60;;;;;;5049871;28;20102;-68
2022/04/02 01:14:08;;;;;;;21.92;3.00;;;29.30;29.80;;;;;;5051855;28;20084;-65
2022/04/02 01:16:35;;;;;;;18.98;3.42;;;29.30;29.70;;;;;;5050502;28;20562;-65
2022/04/02 01:19:03;;;;;;;26.38;3.65;;;29.20;29.60;;;;;;5048820;28;20087;-65
2022/04/02 01:21:30;;;;;;;19.75;2.92;;;29.10;30.00;;;;;;5064467;28;20504;-67
2022/04/02 01:23:57;;;;;;;16.27;2.88;;;28.90;30.00;;;;;;5049215;28;20085;-64
2022/04/02 01:26:25;;;;;;;21.02;3.40;;;28.90;30.00;;;;;;5049980;28;20078;-64
2022/04/02 01:28:56;;;;;;;19.60;3.30;;;28.80;30.50;;;;;;5050160;28;20080;-64
2022/04/02 01:31:24;;;;;;;167.77;12.32;;;28.70;30.50;;;;;;5032909;28;20068;-65
2022/04/02 01:33:51;;;;;;;22.17;2.97;;;28.60;30.70;;;;;;5049995;28;20079;-65
2022/04/02 01:36:18;;;;;;;15.52;3.15;;;28.50;30.60;;;;;;5051608;28;20069;-65
2022/04/02 01:38:46;;;;;;;15.95;3.00;;;28.40;30.80;;;;;;5050343;28;20068;-66
2022/04/02 01:41:13;;;;;;;24.40;3.10;;;28.30;31.10;;;;;;5049970;28;20107;-64
2022/04/02 01:43:40;;;;;;;19.85;2.90;;;28.20;31.50;;;;;;5032842;28;20064;-64
2022/04/02 01:46:07;;;;;;;21.95;3.38;;;28.10;31.80;;;;;;5049992;28;20072;-65
2022/04/02 01:48:34;;;;;;;23.77;4.30;;;28.00;32.10;;;;;;5030882;28;20080;-65
2022/04/02 01:51:00;;;;;;;28.52;5.60;;;27.90;32.20;;;;;;5048111;28;20130;-66
2022/04/02 01:53:27;;;;;;;23.88;3.55;;;27.90;32.90;;;;;;5049474;28;21315;-66
2022/04/02 01:55:54;;;;;;;26.17;3.63;;;27.90;33.40;;;;;;5052042;28;20100;-68
2022/04/02 01:58:21;;;;;;;19.55;4.57;;;27.80;33.70;;;;;;5050073;28;20072;-66
2022/04/02 02:00:47;;;;;;;24.05;3.70;;;27.70;33.90;;;;;;5048964;28;20439;-66
2022/04/02 02:03:14;;;;;;;19.98;4.55;;;27.60;34.00;;;;;;5049287;28;20103;-66
2022/04/02 02:05:41;;;;;;;23.08;5.60;;;27.50;34.10;;;;;;5049610;28;20072;-68
2022/04/02 02:08:08;;;;;;;18.45;4.30;;;27.40;34.40;;;;;;5050080;28;20087;-64
2022/04/02 02:10:35;;;;;;;25.02;5.28;;;27.30;34.60;;;;;;5047357;28;20076;-67
2022/04/02 02:13:01;;;;;;;26.13;4.53;;;27.30;34.70;;;;;;5048975;28;20111;-66
2022/04/02 02:15:28;;;;;;;20.67;3.85;;;27.20;34.50;;;;;;5049710;28;20104;-65
2022/04/02 02:17:54;;;;;;;23.48;3.53;;;27.20;34.20;;;;;;5051883;28;20115;-65
2022/04/02 02:20:22;;;;;;;22.27;4.28;;;27.10;34.40;;;;;;5050395;28;20100;-64
2022/04/02 02:22:51;;;;;;;27.70;4.25;;;27.10;34.40;;;;;;5048786;28;20179;-67
2022/04/02 02:25:18;;;;;;;28.20;4.70;;;27.00;34.50;;;;;;5048750;28;20077;-68
2022/04/02 02:27:45;;;;;;;21.48;5.55;;;27.00;34.60;;;;;;5049556;28;20175;-67
2022/04/02 02:30:13;;;;;;;41.50;5.85;;;26.90;34.80;;;;;;5032236;28;20080;-66
2022/04/02 02:32:40;;;;;;;30.35;5.25;;;26.80;35.20;;;;;;5048522;28;20591;-65
2022/04/02 02:38:10;;;;;;;27.58;5.32;;;26.70;34.40;;;;;;5049275;28;20608;-66
2022/04/02 02:40:38;;;;;;;17.90;5.57;;;26.70;33.90;;;;;;5032579;28;20532;-66
2022/04/02 02:43:06;;;;;;;43.45;6.57;;;26.60;34.10;;;;;;5048054;28;20099;-65
2022/04/02 02:45:33;;;;;;;37.72;6.18;;;26.60;34.20;;;;;;5048283;28;20080;-65
2022/04/02 02:48:01;;;;;;;48.03;6.28;;;26.60;34.30;;;;;;5048881;28;20189;-66
2022/04/02 02:50:28;;;;;;;38.75;5.13;;;26.50;34.10;;;;;;5048311;28;20130;-66
2022/04/02 02:52:54;;;;;;;25.15;5.82;;;26.50;34.90;;;;;;5048677;28;20138;-65
2022/04/02 02:55:21;;;;;;;54.10;6.55;;;26.40;36.40;;;;;;5048535;28;20099;-65
2022/04/02 02:57:47;;;;;;;32.80;5.60;;;26.30;36.90;;;;;;5048799;28;21519;-64
2022/04/02 03:00:15;;;;;;;31.05;5.20;;;26.20;37.30;;;;;;5049128;28;20073;-64
2022/04/02 03:02:42;;;;;;;17.98;4.88;;;26.20;37.80;;;;;;5049087;28;20072;-65
2022/04/02 03:05:11;;;;;;;24.50;4.22;;;26.10;38.30;;;;;;5031932;28;20103;-65
2022/04/02 03:07:53;;;;;;;36.70;5.82;;;26.00;38.60;;;;;;5047795;28;20068;-66
2022/04/02 03:10:23;;;;;;;30.27;6.05;;;26.00;38.70;;;;;;5049116;28;20064;-66
2022/04/02 03:12:51;;;;;;;29.40;5.05;;;25.90;39.10;;;;;;5048919;28;20076;-66
2022/04/02 03:15:18;;;;;;;40.53;5.65;;;25.80;39.00;;;;;;5048395;28;20598;-65
2022/04/02 03:17:45;;;;;;;27.50;6.50;;;25.80;39.20;;;;;;5050421;28;20084;-67
2022/04/02 03:20:13;;;;;;;35.00;5.78;;;25.70;39.30;;;;;;5048679;28;20092;-66
2022/04/02 03:22:41;;;;;;;33.33;5.35;;;25.70;39.30;;;;;;5048703;28;20078;-65
2022/04/02 03:25:09;;;;;;;29.17;4.20;;;25.70;39.50;;;;;;5048104;28;20087;-66
2022/04/02 03:27:37;;;;;;;37.85;5.75;;;25.60;38.80;;;;;;5048086;28;20547;-65
2022/04/02 03:30:05;;;;;;;34.25;5.20;;;25.50;39.20;;;;;;5047579;28;20107;-65
2022/04/02 03:32:32;;;;;;;30.58;4.55;;;25.50;39.10;;;;;;5047547;28;20089;-65
2022/04/02 03:34:59;;;;;;;36.42;4.93;;;25.40;39.10;;;;;;5045618;28;20080;-66
2022/04/02 03:37:25;;;;;;;22.77;4.28;;;25.40;39.00;;;;;;5046847;28;20084;-65
2022/04/02 03:39:53;;;;;;;23.05;4.45;;;25.30;38.70;;;;;;5047983;28;20080;-68
2022/04/02 03:42:20;;;;;;;26.15;4.38;;;25.30;39.00;;;;;;5048329;28;20079;-66
2022/04/02 03:44:47;;;;;;;22.08;4.30;;;25.20;39.00;;;;;;5049227;28;20088;-68
2022/04/02 03:47:15;;;;;;;28.83;4.32;;;25.20;39.30;;;;;;5048433;28;20075;-66
2022/04/02 03:49:47;;;;;;;24.35;4.72;;;25.10;39.10;;;;;;5048238;28;20151;-66
2022/04/02 03:52:15;;;;;;;28.08;4.78;;;25.10;39.30;;;;;;5047832;28;20072;-66
2022/04/02 03:54:42;;;;;;;27.10;4.90;;;25.10;39.20;;;;;;5046954;28;20096;-66
2022/04/02 03:57:12;;;;;;;32.38;5.28;;;25.00;39.30;;;;;;5048856;28;20151;-66
2022/04/02 03:59:40;;;;;;;26.80;4.47;;;25.00;39.60;;;;;;5047816;28;20118;-66
2022/04/02 04:02:08;;;;;;;27.17;4.60;;;24.90;39.60;;;;;;5046859;28;20108;-68
2022/04/02 04:04:38;;;;;;;32.03;4.70;;;24.90;39.70;;;;;;5046343;28;20085;-66
2022/04/02 04:07:06;;;;;;;18.40;4.05;;;24.80;40.00;;;;;;5047870;28;20092;-65
2022/04/02 04:09:32;;;;;;;27.00;4.65;;;24.80;40.00;;;;;;5048052;28;20083;-68
2022/04/02 04:12:00;;;;;;;28.63;4.97;;;24.70;40.40;;;;;;5052669;28;20088;-64
2022/04/02 04:14:27;;;;;;;30.77;4.78;;;24.70;40.20;;;;;;5048397;28;20514;-65
2022/04/02 04:16:54;;;;;;;22.92;4.70;;;24.60;41.00;;;;;;5047705;28;20171;-64
2022/04/02 04:19:21;;;;;;;28.88;5.78;;;24.50;41.10;;;;;;5048170;28;20096;-67
2022/04/02 04:21:48;;;;;;;23.83;5.13;;;24.40;41.60;;;;;;5047235;28;20103;-66
2022/04/02 04:24:15;;;;;;;29.75;6.18;;;24.40;41.60;;;;;;5047648;28;20184;-67
2022/04/02 04:26:42;;;;;;;29.88;7.15;;;24.30;41.40;;;;;;5049043;28;20159;-66
2022/04/02 04:29:09;;;;;;;48.60;8.90;;;24.20;41.40;;;;;;5052390;28;20167;-66
2022/04/02 04:31:36;;;;;;;45.17;8.10;;;24.20;42.10;;;;;;5050888;28;20167;-66
2022/04/02 04:34:03;;;;;;;47.17;9.10;;;24.00;41.90;;;;;;5050606;28;20178;-67
2022/04/02 04:36:30;;;;;;;40.58;7.97;;;24.00;41.90;;;;;;5053036;28;20396;-66
2022/04/02 04:38:57;;;;;;;39.88;7.03;;;23.80;41.60;;;;;;5052426;28;20496;-68
2022/04/02 04:41:24;;;;;;;38.72;6.97;;;23.80;41.40;;;;;;5050754;28;20080;-66
2022/04/02 04:43:51;;;;;;;33.65;6.80;;;23.70;41.60;;;;;;5051406;28;20076;-65
2022/04/02 04:46:18;;;;;;;43.10;7.10;;;23.70;41.70;;;;;;5052022;28;20145;-67
2022/04/02 04:48:45;;;;;;;34.35;7.75;;;23.60;41.80;;;;;;5034913;28;20186;-65
2022/04/02 04:51:13;;;;;;;39.35;8.32;;;23.60;42.10;;;;;;5052031;28;20084;-67
2022/04/02 04:53:40;;;;;;;36.15;10.27;;;23.60;42.50;;;;;;5050949;28;20448;-65
2022/04/02 04:56:07;;;;;;;39.53;10.18;;;23.60;42.70;;;;;;5051852;28;20513;-66
2022/04/02 04:58:34;;;;;;;46.13;10.45;;;23.60;42.90;;;;;;5050990;28;20130;-64
2022/04/02 05:01:01;;;;;;;45.72;12.15;;;23.60;42.90;;;;;;5052626;28;20122;-65
2022/04/02 05:03:28;;;;;;;46.10;12.95;;;23.60;43.10;;;;;;5050667;28;20083;-68
2022/04/02 05:05:56;;;;;;;46.25;12.75;;;23.50;43.10;;;;;;5050562;28;20121;-64
2022/04/02 05:08:25;;;;;;;47.60;15.05;;;23.50;43.50;;;;;;5050028;28;20435;-64
2022/04/02 05:10:53;;;;;;;65.10;15.52;;;23.50;43.60;;;;;;5051385;28;20419;-66
2022/04/02 05:13:20;;;;;;;63.08;16.65;;;23.50;43.90;;;;;;5050777;28;20451;-65
2022/04/02 05:15:47;;;;;;;69.05;17.27;;;23.50;44.00;;;;;;5051025;28;20130;-65
2022/04/02 05:18:14;;;;;;;62.83;19.13;;;23.50;43.80;;;;;;5050658;28;20146;-65
2022/04/02 05:20:44;;;;;;;59.67;19.15;;;23.40;43.90;;;;;;5050060;28;20126;-65
2022/04/02 05:23:11;;;;;;;62.33;19.80;;;23.40;44.20;;;;;;5033832;28;20084;-65
2022/04/02 05:25:38;;;;;;;83.68;22.92;;;23.40;44.10;;;;;;5050426;28;20114;-65
2022/04/02 05:28:05;;;;;;;69.35;22.73;;;23.30;44.30;;;;;;5050295;28;20130;-65
2022/04/02 05:30:37;;;;;;;62.47;21.33;;;23.30;44.40;;;;;;5051295;28;20076;-65
2022/04/02 05:33:04;;;;;;;66.70;21.92;;;23.20;44.50;;;;;;5050268;28;20061;-66
2022/04/02 05:35:30;;;;;;;62.47;19.42;;;23.20;44.70;;;;;;5050947;28;20095;-65
2022/04/02 05:37:57;;;;;;;65.30;17.98;;;23.10;44.50;;;;;;5050887;28;20081;-66
2022/04/02 05:40:24;;;;;;;57.00;16.13;;;23.00;44.70;;;;;;5050238;28;20072;-64
2022/04/02 05:42:50;;;;;;;48.70;15.25;;;22.90;44.80;;;;;;5049968;28;20159;-64
2022/04/02 05:45:17;;;;;;;47.58;13.98;;;22.90;44.90;;;;;;5049621;28;20096;-68
2022/04/02 05:47:47;;;;;;;47.92;12.13;;;22.90;45.10;;;;;;5050921;28;20214;-65
2022/04/02 05:50:15;;;;;;;44.70;10.40;;;22.70;45.50;;;;;;5050309;28;20555;-66
2022/04/02 05:52:41;;;;;;;48.22;10.30;;;22.70;45.60;;;;;;5049978;28;20093;-65
2022/04/02 05:55:10;;;;;;;42.17;9.50;;;22.70;45.70;;;;;;5050249;28;20175;-65
2022/04/02 05:57:38;;;;;;;43.47;9.55;;;22.60;46.00;;;;;;5050225;28;20077;-67
2022/04/02 06:00:06;;;;;;;42.38;10.77;;;22.50;46.20;;;;;;5049425;28;20088;-65
2022/04/02 06:02:33;;;;;;;44.25;10.88;;;22.50;46.60;;;;;;5050544;28;20136;-64
2022/04/02 06:05:00;;;;;;;41.35;8.88;;;22.50;46.80;;;;;;5050510;28;20088;-65
2022/04/02 06:07:27;;;;;;;38.08;8.70;;;22.30;46.70;;;;;;5051251;28;20069;-65
2022/04/02 06:09:53;;;;;;;30.88;8.68;;;22.20;47.00;;;;;;5049365;28;20401;-65
2022/04/02 06:12:19;;;;;;;25.73;7.65;;;22.20;47.50;;;;;;5048944;28;20117;-66
2022/04/02 06:14:46;;;;;;;29.60;7.53;;;22.10;47.90;;;;;;5049789;28;20109;-66
2022/04/02 06:17:12;;;;;;;29.17;7.38;;;22.00;48.20;;;;;;5047452;28;20092;-65
2022/04/02 06:19:38;;;;;;;23.40;5.93;;;22.00;48.30;;;;;;5048833;28;20408;-65
2022/04/02 06:22:06;;;;;;;33.00;6.20;;;21.90;48.50;;;;;;5048824;28;20078;-66
2022/04/02 06:24:34;;;;;;;31.67;6.47;;;21.80;48.60;;;;;;5048735;28;20084;-64
2022/04/02 06:27:01;;;;;;;20.23;5.57;;;21.80;48.70;;;;;;5048396;28;20089;-65
2022/04/02 06:29:27;;;;;;;26.25;6.20;;;21.80;48.70;;;;;;5048756;28;20087;-65
2022/04/02 06:31:54;;;;;;;32.70;6.97;;;21.80;48.80;;;;;;5048240;28;20134;-66
2022/04/02 06:34:21;;;;;;;38.08;6.90;;;21.80;48.90;;;;;;5049181;28;20141;-66
2022/04/02 06:36:47;;;;;;;44.05;6.35;;;21.70;48.90;;;;;;5047751;28;20076;-65
2022/04/02 06:39:13;;;;;;;30.35;6.53;;;21.70;49.10;;;;;;5049481;28;20077;-65
2022/04/02 06:41:41;;;;;;;33.45;6.68;;;21.60;49.10;;;;;;5048270;28;20065;-65
2022/04/02 06:44:08;;;;;;;27.00;6.05;;;21.60;49.10;;;;;;5049546;28;20563;-65
2022/04/02 06:46:38;;;;;;;23.60;7.40;;;21.50;49.50;;;;;;5048604;28;20093;-65
2022/04/02 06:49:06;;;;;;;51.28;11.02;;;21.40;50.00;;;;;;5048261;28;20078;-66
2022/04/02 06:51:33;;;;;;;45.10;13.50;;;21.30;50.30;;;;;;5048095;28;20073;-66
2022/04/02 06:54:00;;;;;;;53.33;14.32;;;21.30;50.30;;;;;;5047562;28;20072;-65
2022/04/02 06:56:27;;;;;;;50.65;12.50;;;21.30;50.50;;;;;;5048316;28;20089;-68
2022/04/02 06:58:53;;;;;;;43.88;10.70;;;21.30;50.60;;;;;;5048456;28;20440;-64
2022/04/02 07:01:20;;;;;;;49.72;10.52;;;21.20;50.60;;;;;;5049169;28;20085;-65
2022/04/02 07:03:47;;;;;;;48.75;9.05;;;21.10;50.20;;;;;;5047972;28;20070;-65
2022/04/02 07:06:13;;;;;;;35.35;8.50;;;21.00;50.40;;;;;;5048503;28;20528;-64
2022/04/02 07:08:39;;;;;;;31.95;8.35;;;21.10;50.60;;;;;;5048097;28;20073;-66
2022/04/02 07:11:06;;;;;;;31.30;7.90;;;21.10;50.70;;;;;;5047973;28;20072;-66
2022/04/02 07:13:32;;;;;;;46.65;9.00;;;21.10;50.60;;;;;;5031317;28;20066;-64
2022/04/02 07:15:59;;;;;;;38.40;8.48;;;21.10;50.50;;;;;;5048869;28;20111;-65
2022/04/02 07:18:26;;;;;;;31.05;8.95;;;21.10;50.60;;;;;;5048336;28;20091;-67
2022/04/02 07:20:53;;;;;;;33.33;8.70;;;21.00;50.80;;;;;;5046066;28;20072;-68
2022/04/02 07:23:21;;;;;;;34.47;8.88;;;21.00;50.80;;;;;;5047048;28;20131;-65
2022/04/02 07:25:50;;;;;;;35.78;8.50;;;21.00;50.20;;;;;;5063187;28;20084;-62
2022/04/02 07:28:18;;;;;;;37.90;7.80;;;21.00;50.70;;;;;;5046734;28;20062;-61
2022/04/02 07:30:46;;;;;;;33.53;7.18;;;20.90;50.40;;;;;;5030841;28;20073;-60
2022/04/02 07:33:12;;;;;;;26.67;7.45;;;20.90;50.80;;;;;;5047611;28;20070;-61
2022/04/02 07:35:44;;;;;;;30.35;7.80;;;20.90;51.10;;;;;;5030572;28;20073;-61
2022/04/02 07:38:35;;;;;;;33.05;7.82;;;20.80;51.60;;;;;;5031495;28;20112;-61
2022/04/02 07:41:18;;;;;;;28.98;6.72;;;20.70;52.10;;;;;;5034229;28;20131;-60
2022/04/02 07:43:54;;;;;;;33.75;7.28;;;20.80;52.60;;;;;;5047440;28;20127;-61
2022/04/02 07:46:27;;;;;;;32.72;6.78;;;20.70;53.30;;;;;;5046298;28;20401;-62
2022/04/02 07:48:54;;;;;;;25.08;6.40;;;20.60;54.20;;;;;;5031387;28;20123;-62
2022/04/02 07:51:24;;;;;;;24.15;6.35;;;20.40;55.80;;;;;;5045957;28;20127;-59
2022/04/02 07:53:54;;;;;;;24.63;6.35;;;20.30;57.00;;;;;;5047163;28;20199;-61
2022/04/02 07:56:27;;;;;;;23.27;5.97;;;20.30;57.90;;;;;;5046882;28;20102;-61
2022/04/02 07:59:00;;;;;;;21.42;5.15;;;20.30;58.50;;;;;;5047097;28;20131;-61
2022/04/02 08:01:28;;;;;;;19.83;4.57;;;20.10;60.00;;;;;;5030871;28;20080;-61
2022/04/02 08:03:56;;;;;;;18.67;4.55;;;20.20;60.80;;;;;;5046736;28;20080;-61
2022/04/02 08:06:23;;;;;;;28.40;4.65;;;20.20;61.40;;;;;;5047316;28;20561;-61
2022/04/02 08:08:50;;;;;;;17.92;5.05;;;20.10;62.40;;;;;;5047159;28;20084;-61
2022/04/02 08:11:18;;;;;;;16.55;4.28;;;20.10;63.10;;;;;;5047649;28;20069;-60
2022/04/02 08:13:46;;;;;;;22.52;4.32;;;20.00;63.90;;;;;;5048044;28;20075;-61
2022/04/02 08:16:13;;;;;;;20.85;5.47;;;20.00;64.80;;;;;;5030662;28;20195;-61
2022/04/02 08:18:40;;;;;;;18.17;4.95;;;20.00;65.40;;;;;;5047720;28;20131;-60
2022/04/02 08:21:08;;;;;;;20.70;4.55;;;19.90;66.40;;;;;;5047175;28;20108;-61
2022/04/02 08:23:36;;;;;;;21.25;4.88;;;19.90;67.60;;;;;;5046960;28;20089;-59
2022/04/02 08:26:21;;;;;;;26.50;4.45;;;19.80;68.50;;;;;;5047840;28;20692;-59
2022/04/02 08:29:32;;;;;;;24.05;4.75;;;19.70;70.70;;;;;;5030563;28;20081;-61
2022/04/02 08:32:13;;;;;;;18.48;4.93;;;19.60;74.60;;;;;;4969928;28;20089;-61
2022/04/02 08:35:00;;;;;;;20.58;4.03;;;19.50;77.50;;;;;;5046292;28;20156;-60
2022/04/02 08:37:37;;;;;;;18.52;3.70;;;19.50;80.40;;;;;;5047939;28;20089;-59
2022/04/02 08:40:11;;;;;;;19.75;4.60;;;19.40;84.30;;;;;;5046806;28;20100;-59
2022/04/02 08:42:59;;;;;;;23.23;4.00;;;19.40;89.60;;;;;;5048079;28;20080;-61
2022/04/02 08:45:30;;;;;;;25.80;4.85;;;19.30;92.20;;;;;;5046109;28;20553;-61
2022/04/02 08:48:15;;;;;;;18.30;4.28;;;19.30;94.20;;;;;;5045714;28;20077;-61
2022/04/02 08:50:53;;;;;;;17.63;5.22;;;19.20;96.20;;;;;;5046230;28;20156;-61
2022/04/02 08:53:21;;;;;;;23.27;4.55;;;19.20;97.70;;;;;;5045788;28;20611;-60
2022/04/02 08:55:58;;;;;;;17.90;3.63;;;19.10;98.80;;;;;;5041998;28;20093;-60
2022/04/02 08:58:58;;;;;;;22.33;4.70;;;19.10;99.80;;;;;;5045315;28;20077;-60
2022/04/02 09:01:27;;;;;;;18.00;4.68;;;19.00;99.90;;;;;;5045784;28;20077;-59
2022/04/02 09:04:31;;;;;;;22.80;4.28;;;19.00;99.90;;;;;;5046535;28;20073;-63
2022/04/02 09:07:32;;;;;;;20.85;5.28;;;19.00;99.90;;;;;;5045729;28;20097;-61
2022/04/02 09:10:38;;;;;;;14.90;4.15;;;18.90;99.90;;;;;;5022351;28;20089;-60
2022/04/02 09:13:26;;;;;;;22.52;4.50;;;18.90;99.90;;;;;;5037549;28;20182;-60
2022/04/02 09:16:07;;;;;;;18.98;4.40;;;18.70;99.90;;;;;;5066240;28;20135;-59
2022/04/02 09:18:59;;;;;;;21.45;4.30;;;18.70;99.90;;;;;;5034337;28;20069;-60
2022/04/02 09:21:30;;;;;;;17.95;4.55;;;18.60;99.90;;;;;;5022175;28;20556;-60
2022/04/02 09:24:14;;;;;;;22.65;5.22;;;18.60;99.90;;;;;;5033171;28;20556;-58
2022/04/02 09:27:05;;;;;;;31.00;7.03;;;18.50;99.90;;;;;;5033543;28;20077;-60
2022/04/02 09:29:43;;;;;;;26.17;8.93;;;18.50;99.90;;;;;;5050194;28;20483;-61
2022/04/02 09:32:25;;;;;;;26.35;7.63;;;18.40;99.90;;;;;;5048603;28;20104;-60
2022/04/02 09:35:26;;;;;;;25.65;9.30;;;18.40;99.90;;;;;;5049281;28;20525;-57
2022/04/02 09:38:14;;;;;;;26.30;10.98;;;18.40;99.90;;;;;;5049196;28;20173;-62
2022/04/02 09:40:50;;;;;;;25.65;10.93;;;18.20;99.90;;;;;;5049722;28;20139;-59
2022/04/02 09:43:58;;;;;;;32.57;11.70;;;18.20;99.90;;;;;;5049814;28;20069;-59
2022/04/02 09:46:39;;;;;;;27.90;10.68;;;18.10;99.90;;;;;;5049533;28;20111;-61
2022/04/02 09:49:19;;;;;;;24.88;9.73;;;18.10;99.90;;;;;;5049903;28;20074;-59
2022/04/02 09:52:16;;;;;;;23.80;7.20;;;18.00;99.90;;;;;;5048591;28;20116;-60
2022/04/02 09:54:51;;;;;;;20.40;7.00;;;18.00;99.90;;;;;;5046103;28;20184;-59
2022/04/02 09:57:46;;;;;;;24.05;6.38;;;18.00;99.90;;;;;;5046746;28;20088;-61
2022/04/02 10:00:20;;;;;;;30.38;5.90;;;17.90;99.90;;;;;;5050438;28;20074;-63
2022/04/02 10:03:02;;;;;;;21.75;4.97;;;17.80;99.90;;;;;;5049546;28;20540;-59
2022/04/02 10:05:49;;;;;;;19.30;4.65;;;17.80;99.90;;;;;;5049886;28;20476;-59
2022/04/02 10:08:39;;;;;;;26.13;4.93;;;17.80;99.90;;;;;;5049240;28;20156;-59
2022/04/02 10:11:11;;;;;;;22.83;4.72;;;17.80;99.90;;;;;;5031396;28;20521;-59
2022/04/02 10:13:39;;;;;;;18.23;4.63;;;17.70;99.90;;;;;;5049292;28;20077;-62
2022/04/02 10:16:07;;;;;;;14.23;4.25;;;17.80;99.90;;;;;;5049545;28;20109;-58
2022/04/02 10:18:35;;;;;;;20.40;4.72;;;17.70;99.90;;;;;;5031987;28;20074;-62
2022/04/02 10:21:07;;;;;;;20.48;4.97;;;17.80;99.90;;;;;;5049397;28;20089;-58
2022/04/02 10:23:37;;;;;;;23.08;4.50;;;17.70;99.90;;;;;;5032045;28;20070;-58
2022/04/02 10:26:17;;;;;;;12.95;4.47;;;17.70;99.90;;;;;;5048031;28;20206;-59
2022/04/02 10:28:54;;;;;;;16.63;4.38;;;17.70;99.90;;;;;;5049026;28;20178;-58
2022/04/02 10:31:52;;;;;;;14.48;4.63;;;17.60;99.90;;;;;;5046489;28;20069;-59
2022/04/02 10:34:22;;;;;;;19.35;4.57;;;17.70;99.90;;;;;;5048575;28;20503;-60
2022/04/02 10:37:00;;;;;;;17.55;3.60;;;17.60;99.90;;;;;;5051173;28;20077;-58
2022/04/02 10:39:29;;;;;;;17.35;4.13;;;17.60;99.90;;;;;;5048697;28;20075;-60
2022/04/02 10:42:02;;;;;;;14.75;4.28;;;17.60;99.90;;;;;;5049664;28;20119;-61
2022/04/02 10:44:47;;;;;;;15.77;4.28;;;17.60;99.90;;;;;;5048050;28;20089;-63
2022/04/02 10:47:16;;;;;;;18.00;4.22;;;17.60;99.90;;;;;;5048026;28;20069;-63
2022/04/02 10:49:49;;;;;;;18.05;4.78;;;17.60;99.90;;;;;;5048825;28;20096;-59
2022/04/02 10:52:16;;;;;;;20.10;4.90;;;17.50;99.90;;;;;;5048352;28;20077;-61
2022/04/02 10:54:48;;;;;;;15.85;4.72;;;17.50;99.90;;;;;;5048455;28;20089;-59
2022/04/02 10:57:18;;;;;;;16.58;3.95;;;17.50;99.90;;;;;;5046536;28;20081;-59
2022/04/02 10:59:48;;;;;;;17.70;5.05;;;17.40;99.90;;;;;;5047530;28;20074;-59
2022/04/02 11:02:24;;;;;;;18.75;4.60;;;17.40;99.90;;;;;;5048310;28;20105;-59
2022/04/02 11:05:03;;;;;;;18.70;4.67;;;17.40;99.90;;;;;;5031947;28;20115;-60
2022/04/02 11:07:44;;;;;;;15.23;3.92;;;17.30;99.90;;;;;;5031670;28;20165;-59
2022/04/02 11:10:21;;;;;;;17.05;4.68;;;17.30;99.90;;;;;;5032791;28;20066;-61
2022/04/02 11:12:58;;;;;;;19.83;4.28;;;17.40;99.90;;;;;;5047994;28;20073;-58
2022/04/02 11:15:25;;;;;;;16.65;3.78;;;17.30;99.90;;;;;;5047943;28;20112;-60
2022/04/02 11:17:53;;;;;;;15.15;4.15;;;17.20;99.90;;;;;;5048323;28;20081;-59
2022/04/02 11:20:25;;;;;;;16.73;4.00;;;17.10;99.90;;;;;;5048170;28;20073;-59
2022/04/02 11:22:55;;;;;;;19.20;4.63;;;17.10;99.90;;;;;;5048717;28;20081;-62
2022/04/02 11:25:46;;;;;;;23.67;6.65;;;17.00;99.90;;;;;;5048659;28;20131;-62
2022/04/02 11:28:16;;;;;;;20.98;4.25;;;17.10;99.90;;;;;;5034567;28;20101;-58
2022/04/02 11:30:44;;;;;;;10.48;3.92;;;17.00;99.90;;;;;;5047308;28;20072;-60
2022/04/02 11:33:13;;;;;;;16.08;3.60;;;17.00;99.90;;;;;;5046728;28;20440;-57
2022/04/02 11:35:51;;;;;;;11.10;2.97;;;17.00;99.90;;;;;;5047122;28;20548;-58
2022/04/02 11:38:20;;;;;;;18.27;3.40;;;16.90;99.90;;;;;;5031706;28;20077;-59
2022/04/02 11:40:55;;;;;;;15.48;3.42;;;17.00;99.90;;;;;;5048685;28;20144;-58
2022/04/02 11:43:32;;;;;;;14.50;3.58;;;16.90;99.90;;;;;;5046769;28;20077;-59
2022/04/02 11:46:01;;;;;;;10.95;3.42;;;16.90;99.90;;;;;;5014421;28;20142;-59
2022/04/02 11:48:32;;;;;;;19.38;3.55;;;17.00;99.90;;;;;;5047274;28;20077;-59
2022/04/02 11:51:18;;;;;;;10.15;3.47;;;16.80;99.90;;;;;;5047189;28;20168;-59
2022/04/02 11:53:45;;;;;;;15.18;4.15;;;16.80;99.90;;;;;;5045757;28;20080;-61
2022/04/02 11:56:33;;;;;;;13.32;3.22;;;16.90;99.90;;;;;;5030956;28;20093;-59
2022/04/02 11:59:09;;;;;;;13.95;3.22;;;16.90;99.90;;;;;;5047449;28;20444;-62
2022/04/02 12:01:54;;;;;;;11.82;3.55;;;17.10;99.90;;;;;;5046664;28;20097;-61
2022/04/02 12:04:25;;;;;;;15.52;3.72;;;17.10;99.90;;;;;;5047451;28;20491;-60
2022/04/02 12:07:06;;;;;;;14.63;3.83;;;17.00;99.90;;;;;;5047345;28;20200;-59
2022/04/02 12:09:33;;;;;;;11.98;3.13;;;17.00;99.90;;;;;;5048174;28;20069;-61
2022/04/02 12:12:05;;;;;;;11.65;3.30;;;16.80;99.90;;;;;;5047328;28;20597;-60
2022/04/02 12:14:35;;;;;;;17.10;3.35;;;16.80;99.90;;;;;;5030820;28;20113;-59
2022/04/02 12:17:10;;;;;;;14.00;2.92;;;16.70;99.90;;;;;;5062552;28;20207;-60
2022/04/02 12:19:50;;;;;;;15.80;4.07;;;16.70;99.90;;;;;;5046738;28;20093;-57
2022/04/02 12:22:27;;;;;;;11.10;3.80;;;16.70;99.90;;;;;;5045982;28;20077;-60
2022/04/02 12:24:58;;;;;;;11.73;3.17;;;16.50;99.90;;;;;;5046582;28;20093;-59
2022/04/02 12:27:31;;;;;;;10.85;3.55;;;16.40;99.90;;;;;;5046884;28;20074;-59
2022/04/02 12:30:00;;;;;;;14.88;4.32;;;16.40;99.90;;;;;;5046790;28;20134;-59
2022/04/02 12:32:45;;;;;;;16.02;4.30;;;16.30;99.90;;;;;;5030362;28;20074;-58
2022/04/02 12:35:22;;;;;;;15.80;4.00;;;16.30;99.90;;;;;;5047109;28;20586;-59
2022/04/02 12:37:52;;;;;;;14.30;4.13;;;16.20;99.90;;;;;;5044528;28;20081;-59
2022/04/02 12:40:30;;;;;;;19.20;6.45;;;16.30;99.90;;;;;;5030246;28;20227;-58
2022/04/02 12:43:02;;;;;;;16.10;6.32;;;16.10;99.90;;;;;;5045494;28;20077;-60
2022/04/02 12:45:31;;;;;;;12.00;5.22;;;16.10;99.90;;;;;;5047731;28;20094;-59
2022/04/02 12:48:05;;;;;;;20.20;5.55;;;16.10;99.90;;;;;;5049024;28;20069;-59
2022/04/02 12:50:49;;;;;;;17.15;6.32;;;16.10;99.90;;;;;;5050982;28;20092;-63
2022/04/02 12:53:39;;;;;;;22.80;9.48;;;16.00;99.90;;;;;;5050601;28;20552;-60
2022/04/02 12:56:15;;;;;;;29.33;11.98;;;16.10;99.90;;;;;;5032874;28;20093;-63
2022/04/02 12:58:44;;;;;;;18.70;6.85;;;16.10;99.90;;;;;;5034364;28;20080;-61